createdAt,value
2022-08-14T00:01:54.337Z,14.20
2022-08-14T00:04:36.126Z,14.20
2022-08-14T00:07:11.077Z,14.10
2022-08-14T00:09:39.992Z,14.20
2022-08-14T00:12:33.045Z,14.20
2022-08-14T00:15:43.332Z,14.20
2022-08-14T00:18:14.805Z,14.20
2022-08-14T00:20:58.410Z,14.30
2022-08-14T00:23:26.808Z,14.40
2022-08-14T00:26:05.778Z,14.60
2022-08-14T00:28:35.722Z,14.60
2022-08-14T00:31:04.708Z,14.60
2022-08-14T00:33:39.241Z,14.60
2022-08-14T00:36:37.636Z,14.60
2022-08-14T00:39:09.258Z,14.50
2022-08-14T00:41:36.879Z,14.50
2022-08-14T00:44:06.513Z,14.40
2022-08-14T00:46:33.706Z,14.40
2022-08-14T00:49:00.946Z,14.30
2022-08-14T00:51:34.826Z,14.40
2022-08-14T00:54:17.094Z,14.30
2022-08-14T00:56:55.117Z,14.20
2022-08-14T00:59:25.250Z,14.10
2022-08-14T01:01:55.953Z,14.10
2022-08-14T01:04:37.783Z,14.20
2022-08-14T01:07:12.169Z,14.10
2022-08-14T01:09:41.895Z,14.10
2022-08-14T01:12:10.832Z,14.00
2022-08-14T01:14:37.730Z,14.10
2022-08-14T01:17:08.754Z,14.10
2022-08-14T01:19:55.011Z,14.10
2022-08-14T01:22:35.555Z,14.00
2022-08-14T01:25:07.827Z,14.00
2022-08-14T01:27:52.538Z,13.90
2022-08-14T01:30:24.175Z,14.00
2022-08-14T01:32:52.623Z,14.20
2022-08-14T01:36:04.361Z,14.10
2022-08-14T01:38:06.537Z,14.20
2022-08-14T01:40:41.718Z,14.20
2022-08-14T01:43:15.910Z,14.10
2022-08-14T01:45:57.986Z,14.00
2022-08-14T01:48:37.586Z,14.10
2022-08-14T01:51:18.991Z,14.00
2022-08-14T01:53:59.192Z,13.80
2022-08-14T01:56:39.841Z,13.80
2022-08-14T01:59:38.248Z,13.70
2022-08-14T02:02:19.018Z,13.70
2022-08-14T02:04:55.773Z,13.60
2022-08-14T02:07:34.279Z,13.60
2022-08-14T02:10:15.830Z,13.60
2022-08-14T02:12:54.178Z,13.50
2022-08-14T02:15:25.830Z,13.50
2022-08-14T02:17:53.558Z,13.50
2022-08-14T02:20:23.885Z,13.50
2022-08-14T02:22:54.867Z,13.60
2022-08-14T02:25:22.828Z,13.80
2022-08-14T02:28:24.683Z,13.90
2022-08-14T02:30:38.467Z,13.80
2022-08-14T02:33:07.416Z,13.80
2022-08-14T02:35:40.469Z,13.80
2022-08-14T02:38:11.906Z,13.70
2022-08-14T02:40:55.520Z,13.70
2022-08-14T02:43:22.605Z,13.60
2022-08-14T02:45:49.943Z,13.60
2022-08-14T02:49:01.761Z,13.60
2022-08-14T02:51:07.269Z,13.50
2022-08-14T02:53:39.823Z,13.70
2022-08-14T02:57:13.758Z,13.50
2022-08-14T02:59:02.065Z,13.60
2022-08-14T03:01:50.215Z,13.50
2022-08-14T03:04:20.129Z,13.50
2022-08-14T03:06:57.832Z,13.40
2022-08-14T03:09:41.922Z,13.50
2022-08-14T03:12:30.818Z,13.40
2022-08-14T03:15:09.036Z,13.30
2022-08-14T03:17:57.709Z,13.30
2022-08-14T03:20:30.462Z,13.30
2022-08-14T03:23:02.722Z,13.20
2022-08-14T03:25:34.199Z,13.20
2022-08-14T03:28:07.229Z,13.10
2022-08-14T03:30:38.999Z,13.20
2022-08-14T03:33:09.022Z,13.10
2022-08-14T03:35:39.857Z,13.10
2022-08-14T03:39:15.115Z,13.10
2022-08-14T03:40:57.064Z,13.10
2022-08-14T03:43:28.515Z,13.10
2022-08-14T03:46:00.490Z,13.20
2022-08-14T03:48:31.243Z,13.10
2022-08-14T03:50:59.716Z,13.10
2022-08-14T03:53:28.729Z,13.00
2022-08-14T03:55:59.040Z,13.00
2022-08-14T03:58:36.468Z,12.90
2022-08-14T04:01:06.527Z,12.90
2022-08-14T04:03:37.238Z,13.00
2022-08-14T04:06:05.861Z,12.90
2022-08-14T04:08:41.970Z,12.90
2022-08-14T04:11:10.378Z,12.90
2022-08-14T04:13:41.684Z,12.90
2022-08-14T04:16:14.865Z,13.00
2022-08-14T04:18:45.865Z,13.00
2022-08-14T04:21:14.880Z,13.00
2022-08-14T04:23:44.130Z,13.10
2022-08-14T04:26:14.298Z,13.10
2022-08-14T04:29:05.418Z,13.10
2022-08-14T04:32:58.269Z,13.20
2022-08-14T04:34:20.714Z,13.20
2022-08-14T04:37:09.574Z,13.30
2022-08-14T04:39:56.571Z,13.20
2022-08-14T04:42:47.101Z,13.50
2022-08-14T04:45:20.067Z,13.50
2022-08-14T04:48:05.730Z,13.60
2022-08-14T04:50:37.989Z,13.60
2022-08-14T04:53:15.085Z,13.70
2022-08-14T04:55:45.887Z,13.80
2022-08-14T04:58:21.868Z,13.90
2022-08-14T05:00:59.585Z,14.00
2022-08-14T05:03:32.114Z,14.10
2022-08-14T05:06:01.200Z,14.20
2022-08-14T05:08:31.874Z,14.20
2022-08-14T05:11:18.198Z,14.30
2022-08-14T05:14:42.701Z,14.50
2022-08-14T05:16:33.869Z,14.60
2022-08-14T05:19:18.445Z,14.70
2022-08-14T05:21:59.278Z,14.70
2022-08-14T05:24:29.525Z,14.80
2022-08-14T05:26:56.651Z,14.90
2022-08-14T05:29:23.874Z,15.10
2022-08-14T05:31:57.394Z,15.20
2022-08-14T05:34:31.814Z,15.30
2022-08-14T05:37:02.515Z,15.40
2022-08-14T05:39:31.651Z,15.50
2022-08-14T05:41:59.102Z,15.60
2022-08-14T05:44:30.175Z,15.70
2022-08-14T05:46:58.795Z,15.80
2022-08-14T05:49:33.447Z,15.90
2022-08-14T05:52:02.496Z,16.00
2022-08-14T05:54:35.667Z,16.10
2022-08-14T05:57:04.691Z,16.20
2022-08-14T05:59:36.478Z,16.30
2022-08-14T06:02:06.080Z,16.40
2022-08-14T06:04:33.028Z,16.50
2022-08-14T06:07:00.166Z,16.60
2022-08-14T06:09:27.024Z,16.80
2022-08-14T06:11:53.933Z,16.90
2022-08-14T06:14:23.959Z,17.00
2022-08-14T06:16:52.108Z,17.10
2022-08-14T06:19:23.433Z,17.20
2022-08-14T06:21:55.808Z,17.40
2022-08-14T06:24:26.203Z,17.60
2022-08-14T06:26:56.810Z,17.60
2022-08-14T06:29:34.831Z,17.80
2022-08-14T06:32:37.451Z,17.90
2022-08-14T06:35:11.583Z,18.00
2022-08-14T06:37:51.515Z,18.00
2022-08-14T06:40:27.367Z,18.10
2022-08-14T06:43:05.379Z,18.30
2022-08-14T06:45:36.185Z,18.30
2022-08-14T06:48:06.258Z,18.50
2022-08-14T06:50:39.803Z,18.50
2022-08-14T06:53:07.434Z,18.60
2022-08-14T06:55:36.996Z,18.70
2022-08-14T06:58:24.764Z,18.70
2022-08-14T07:01:14.490Z,18.80
2022-08-14T07:04:01.447Z,19.00
2022-08-14T07:06:46.557Z,19.10
2022-08-14T07:09:19.804Z,19.30
2022-08-14T07:11:49.779Z,19.40
2022-08-14T07:14:16.753Z,19.50
2022-08-14T07:16:43.672Z,19.60
2022-08-14T07:19:11.747Z,19.70
2022-08-14T07:21:39.720Z,19.70
2022-08-14T07:24:09.650Z,19.90
2022-08-14T07:26:53.298Z,19.90
2022-08-14T07:29:26.035Z,20.00
2022-08-14T07:31:53.688Z,20.20
2022-08-14T07:34:26.504Z,20.30
2022-08-14T07:37:04.807Z,20.40
2022-08-14T07:39:34.370Z,20.50
2022-08-14T07:42:02.210Z,20.60
2022-08-14T07:44:35.613Z,20.80
2022-08-14T07:47:13.295Z,20.90
2022-08-14T07:49:41.726Z,21.10
2022-08-14T07:52:10.675Z,21.20
2022-08-14T07:54:41.524Z,21.30
2022-08-14T07:57:12.717Z,21.40
2022-08-14T07:59:49.484Z,21.50
2022-08-14T08:02:19.722Z,21.60
2022-08-14T08:04:53.105Z,21.80
2022-08-14T08:07:24.160Z,21.90
2022-08-14T08:09:55.584Z,22.00
2022-08-14T08:12:29.543Z,22.00
2022-08-14T08:15:03.196Z,22.20
2022-08-14T08:17:38.786Z,22.30
2022-08-14T08:20:19.938Z,22.40
2022-08-14T08:22:49.757Z,22.50
2022-08-14T08:25:24.165Z,22.60
2022-08-14T08:27:56.154Z,22.80
2022-08-14T08:30:23.615Z,22.90
2022-08-14T08:32:53.367Z,22.90
2022-08-14T08:35:23.738Z,23.00
2022-08-14T08:38:01.185Z,23.10
2022-08-14T08:40:42.271Z,23.20
2022-08-14T08:43:21.294Z,23.30
2022-08-14T08:45:57.239Z,23.40
2022-08-14T08:48:31.940Z,23.60
2022-08-14T08:51:05.292Z,23.60
2022-08-14T08:53:34.094Z,23.80
2022-08-14T08:56:01.256Z,23.90
2022-08-14T08:58:28.668Z,24.00
2022-08-14T09:00:58.680Z,24.00
2022-08-14T09:03:27.896Z,24.10
2022-08-14T09:06:54.456Z,24.20
2022-08-14T09:08:52.647Z,24.20
2022-08-14T09:11:21.295Z,24.30
2022-08-14T09:13:53.066Z,24.40
2022-08-14T09:16:23.541Z,24.50
2022-08-14T09:18:53.493Z,24.40
2022-08-14T09:21:21.207Z,24.30
2022-08-14T09:24:29.038Z,24.50
2022-08-14T09:26:49.259Z,24.60
2022-08-14T09:29:18.176Z,24.70
2022-08-14T09:31:56.997Z,24.80
2022-08-14T09:34:39.685Z,24.90
2022-08-14T09:37:40.985Z,25.00
2022-08-14T09:40:42.139Z,25.10
2022-08-14T09:43:25.929Z,25.20
2022-08-14T09:45:58.326Z,25.20
2022-08-14T09:48:30.984Z,25.20
2022-08-14T09:54:12.891Z,25.50
2022-08-14T09:56:43.749Z,25.60
2022-08-14T09:59:16.654Z,25.70
2022-08-14T10:01:46.260Z,25.70
2022-08-14T10:04:34.999Z,25.90
2022-08-14T10:07:06.226Z,26.00
2022-08-14T10:10:00.188Z,26.20
2022-08-14T10:12:50.031Z,26.20
2022-08-14T10:15:23.839Z,26.30
2022-08-14T10:18:03.440Z,26.50
2022-08-14T10:20:39.766Z,26.40
2022-08-14T10:23:18.123Z,26.30
2022-08-14T10:25:50.361Z,26.40
2022-08-14T10:28:39.287Z,26.50
2022-08-14T10:31:29.587Z,26.50
2022-08-14T10:34:12.722Z,26.60
2022-08-14T10:36:47.724Z,26.70
2022-08-14T10:39:23.597Z,26.80
2022-08-14T10:42:04.482Z,27.00
2022-08-14T10:44:47.434Z,27.10
2022-08-14T10:47:41.685Z,27.10
2022-08-14T10:50:06.526Z,27.00
2022-08-14T10:52:35.773Z,27.00
2022-08-14T10:55:14.106Z,27.10
2022-08-14T10:57:52.491Z,27.20
2022-08-14T11:00:29.934Z,27.30
2022-08-14T11:03:13.298Z,27.50
2022-08-14T11:05:49.519Z,27.80
2022-08-14T11:08:32.295Z,28.00
2022-08-14T11:11:03.272Z,28.00
2022-08-14T11:13:32.001Z,27.90
2022-08-14T11:16:01.075Z,27.80
2022-08-14T11:18:36.213Z,27.90
2022-08-14T11:21:08.421Z,27.80
2022-08-14T11:23:40.979Z,28.10
2022-08-14T11:26:11.607Z,28.40
2022-08-14T11:28:47.571Z,28.60
2022-08-14T11:31:19.989Z,28.70
2022-08-14T11:33:55.273Z,28.80
2022-08-14T11:36:57.254Z,28.40
2022-08-14T11:39:34.374Z,28.30
2022-08-14T11:42:57.622Z,28.60
2022-08-14T11:45:00.231Z,28.40
2022-08-14T11:47:34.733Z,28.60
2022-08-14T11:50:34.095Z,28.50
2022-08-14T11:53:06.893Z,28.40
2022-08-14T11:55:39.401Z,28.70
2022-08-14T11:58:11.644Z,29.00
2022-08-14T12:00:59.747Z,29.00
2022-08-14T12:03:52.441Z,28.80
2022-08-14T12:06:29.145Z,29.30
2022-08-14T12:09:08.741Z,29.70
2022-08-14T12:11:44.215Z,29.70
2022-08-14T12:14:34.709Z,29.10
2022-08-14T12:17:09.510Z,29.00
2022-08-14T12:19:51.569Z,28.50
2022-08-14T12:22:34.388Z,28.20
2022-08-14T12:25:06.056Z,28.10
2022-08-14T12:27:52.022Z,28.20
2022-08-14T12:30:43.052Z,28.30
2022-08-14T12:33:32.710Z,27.80
2022-08-14T12:36:08.761Z,27.30
2022-08-14T12:38:43.327Z,27.30
2022-08-14T12:41:20.990Z,27.40
2022-08-14T12:43:56.443Z,27.30
2022-08-14T12:46:43.482Z,27.50
2022-08-14T12:49:17.184Z,27.80
2022-08-14T12:51:56.584Z,27.80
2022-08-14T12:54:28.586Z,27.80
2022-08-14T12:57:10.326Z,27.80
2022-08-14T12:59:42.787Z,28.00
2022-08-14T13:02:26.341Z,28.00
2022-08-14T13:04:58.001Z,28.00
2022-08-14T13:07:32.434Z,28.20
2022-08-14T13:10:45.757Z,28.30
2022-08-14T13:13:12.109Z,28.30
2022-08-14T13:15:38.330Z,28.30
2022-08-14T13:18:10.575Z,28.50
2022-08-14T13:20:37.958Z,28.50
2022-08-14T13:23:06.207Z,28.70
2022-08-14T13:25:37.758Z,28.70
2022-08-14T13:28:05.214Z,28.90
2022-08-14T13:30:41.064Z,29.00
2022-08-14T13:33:14.948Z,29.10
2022-08-14T13:35:47.627Z,29.30
2022-08-14T13:38:22.216Z,29.70
2022-08-14T13:40:56.124Z,30.10
2022-08-14T13:43:31.672Z,30.20
2022-08-14T13:46:04.086Z,30.30
2022-08-14T13:48:36.005Z,30.50
2022-08-14T13:51:08.026Z,30.70
2022-08-14T13:54:07.084Z,30.70
2022-08-14T13:56:38.627Z,30.90
2022-08-14T13:59:06.596Z,30.90
2022-08-14T14:01:43.527Z,30.70
2022-08-14T14:04:19.023Z,30.30
2022-08-14T14:06:51.127Z,30.00
2022-08-14T14:09:37.536Z,29.80
2022-08-14T14:12:38.405Z,29.70
2022-08-14T14:15:11.218Z,29.30
2022-08-14T14:17:39.487Z,29.30
2022-08-14T14:20:34.638Z,29.50
2022-08-14T14:23:02.586Z,29.40
2022-08-14T14:25:45.736Z,29.40
2022-08-14T14:28:16.997Z,29.40
2022-08-14T14:30:54.708Z,29.40
2022-08-14T14:33:47.039Z,29.20
2022-08-14T14:36:21.530Z,29.10
2022-08-14T14:38:57.209Z,28.80
2022-08-14T14:41:27.071Z,28.70
2022-08-14T14:44:09.244Z,28.70
2022-08-14T14:46:42.031Z,28.70
2022-08-14T14:49:14.976Z,28.70
2022-08-14T14:51:51.537Z,28.70
2022-08-14T14:54:31.155Z,28.60
2022-08-14T14:57:02.373Z,28.50
2022-08-14T14:59:33.605Z,28.30
2022-08-14T15:02:09.114Z,28.20
2022-08-14T15:04:43.487Z,28.20
2022-08-14T15:07:12.441Z,27.90
2022-08-14T15:09:39.972Z,27.90
2022-08-14T15:12:34.142Z,27.90
2022-08-14T15:14:58.063Z,27.80
2022-08-14T15:17:41.460Z,27.80
2022-08-14T15:20:17.008Z,27.60
2022-08-14T15:22:51.063Z,27.50
2022-08-14T15:25:18.551Z,27.50
2022-08-14T15:27:46.996Z,27.40
2022-08-14T15:30:24.257Z,27.30
2022-08-14T15:32:53.110Z,27.20
2022-08-14T15:35:22.739Z,27.20
2022-08-14T15:37:55.682Z,27.20
2022-08-14T15:40:24.283Z,27.20
2022-08-14T15:42:51.265Z,27.20
2022-08-14T15:45:19.049Z,27.20
2022-08-14T15:47:45.985Z,27.20
2022-08-14T15:50:19.378Z,27.20
2022-08-14T15:52:46.740Z,27.20
2022-08-14T15:55:15.558Z,27.20
2022-08-14T15:58:02.581Z,27.20
2022-08-14T16:00:54.619Z,27.10
2022-08-14T16:03:27.794Z,27.10
2022-08-14T16:06:11.194Z,27.20
2022-08-14T16:08:44.427Z,27.30
2022-08-14T16:11:12.318Z,27.40
2022-08-14T16:13:47.668Z,27.70
2022-08-14T16:16:49.178Z,27.80
2022-08-14T16:19:11.031Z,28.20
2022-08-14T16:22:01.239Z,29.80
2022-08-14T16:24:33.435Z,29.80
2022-08-14T16:27:03.503Z,29.90
2022-08-14T16:29:34.573Z,31.40
2022-08-14T16:32:32.011Z,31.50
2022-08-14T16:34:54.980Z,30.90
2022-08-14T16:37:30.572Z,30.40
2022-08-14T16:40:02.251Z,29.80
2022-08-14T16:43:02.520Z,29.20
2022-08-14T16:45:26.231Z,28.90
2022-08-14T16:47:54.979Z,28.60
2022-08-14T16:50:42.994Z,28.20
2022-08-14T16:53:10.393Z,28.10
2022-08-14T16:55:53.387Z,29.10
2022-08-14T16:58:27.006Z,29.20
2022-08-14T17:01:29.727Z,31.50
2022-08-14T17:04:08.737Z,33.10
2022-08-14T17:06:46.472Z,34.10
2022-08-14T17:09:33.956Z,34.20
2022-08-14T17:12:33.634Z,33.90
2022-08-14T17:15:10.635Z,34.50
2022-08-14T17:17:40.902Z,34.80
2022-08-14T17:20:54.556Z,34.70
2022-08-14T17:23:02.498Z,32.70
2022-08-14T17:25:38.010Z,29.70
2022-08-14T17:28:50.616Z,28.60
2022-08-14T17:31:06.853Z,27.70
2022-08-14T17:33:40.912Z,26.80
2022-08-14T17:36:24.109Z,25.90
2022-08-14T17:39:06.337Z,25.20
2022-08-14T17:42:01.782Z,24.70
2022-08-14T17:44:45.367Z,24.40
2022-08-14T17:47:18.577Z,24.00
2022-08-14T17:49:52.209Z,23.70
2022-08-14T17:52:34.379Z,23.30
2022-08-14T17:55:05.123Z,23.10
2022-08-14T17:57:35.321Z,22.90
2022-08-14T18:00:12.969Z,22.80
2022-08-14T18:02:51.350Z,22.60
2022-08-14T18:05:23.367Z,22.50
2022-08-14T18:08:31.982Z,22.50
2022-08-14T18:10:56.673Z,22.30
2022-08-14T18:13:49.895Z,22.20
2022-08-14T18:16:20.574Z,22.20
2022-08-14T18:18:50.975Z,22.00
2022-08-14T18:21:24.710Z,21.80
2022-08-14T18:24:28.572Z,21.70
2022-08-14T18:27:14.886Z,21.50
2022-08-14T18:30:33.336Z,21.40
2022-08-14T18:32:55.292Z,21.30
2022-08-14T18:35:59.908Z,21.20
2022-08-14T18:38:45.713Z,21.10
2022-08-14T18:41:36.732Z,21.00
2022-08-14T18:44:05.247Z,20.90
2022-08-14T18:47:09.992Z,20.80
2022-08-14T18:50:26.319Z,20.70
2022-08-14T18:52:53.460Z,20.60
2022-08-14T18:55:21.369Z,20.40
2022-08-14T18:57:58.329Z,20.40
2022-08-14T19:00:33.803Z,20.40
2022-08-14T19:03:03.859Z,20.30
2022-08-14T19:05:54.937Z,20.10
2022-08-14T19:08:26.442Z,20.00
2022-08-14T19:11:03.941Z,19.90
2022-08-14T19:13:48.981Z,19.70
2022-08-14T19:16:26.290Z,19.60
2022-08-14T19:19:00.462Z,19.60
2022-08-14T19:22:01.909Z,19.50
2022-08-14T19:24:44.119Z,19.40
2022-08-14T19:27:23.733Z,19.40
2022-08-14T19:30:19.830Z,19.40
2022-08-14T19:32:58.908Z,19.40
2022-08-14T19:35:49.816Z,19.30
2022-08-14T19:38:44.204Z,19.20
2022-08-14T19:41:16.398Z,19.30
2022-08-14T19:43:56.192Z,19.20
2022-08-14T19:46:37.570Z,19.20
2022-08-14T19:49:07.466Z,19.20
2022-08-14T19:51:47.132Z,19.20
2022-08-14T19:54:16.545Z,19.10
2022-08-14T19:56:45.707Z,19.10
2022-08-14T19:59:18.266Z,19.10
2022-08-14T20:01:49.825Z,19.20
2022-08-14T20:04:47.267Z,19.20
2022-08-14T20:07:26.731Z,19.20
2022-08-14T20:11:07.097Z,19.20
2022-08-14T20:12:57.539Z,19.10
2022-08-14T20:15:46.798Z,19.10
2022-08-14T20:18:38.989Z,19.00
2022-08-14T20:21:04.904Z,18.90
2022-08-14T20:23:37.848Z,18.90
2022-08-14T20:26:31.341Z,18.80
2022-08-14T20:29:04.553Z,18.70
2022-08-14T20:31:37.595Z,18.70
2022-08-14T20:34:18.834Z,18.70
2022-08-14T20:37:04.233Z,18.60
2022-08-14T20:39:34.578Z,18.70
2022-08-14T20:42:30.374Z,18.60
2022-08-14T20:45:27.614Z,18.60
2022-08-14T20:48:07.132Z,18.50
2022-08-14T20:50:34.627Z,18.30
2022-08-14T20:53:24.647Z,18.20
2022-08-14T20:55:53.472Z,18.20
2022-08-14T20:58:44.364Z,18.10
2022-08-14T21:01:32.549Z,18.10
2022-08-14T21:04:01.644Z,18.10
2022-08-14T21:07:22.899Z,18.00
2022-08-14T21:10:03.374Z,17.90
2022-08-14T21:12:33.353Z,17.80
2022-08-14T21:15:01.147Z,17.70
2022-08-14T21:17:30.138Z,17.60
2022-08-14T21:19:57.301Z,17.50
2022-08-14T21:22:25.555Z,17.40
2022-08-14T21:25:01.520Z,17.30
2022-08-14T21:27:37.358Z,17.30
2022-08-14T21:30:08.818Z,17.20
2022-08-14T21:32:47.087Z,17.20
2022-08-14T21:35:19.632Z,17.20
2022-08-14T21:37:50.618Z,17.10
2022-08-14T21:40:42.081Z,17.10
2022-08-14T21:43:17.651Z,17.10
2022-08-14T21:45:53.438Z,17.00
2022-08-14T21:48:29.730Z,17.00
2022-08-14T21:51:52.450Z,16.90
2022-08-14T21:53:58.053Z,16.90
2022-08-14T21:56:38.169Z,16.80
2022-08-14T21:59:39.866Z,16.80
2022-08-14T22:02:07.296Z,16.70
2022-08-14T22:04:41.554Z,16.70
2022-08-14T22:07:17.468Z,16.60
2022-08-14T22:09:54.710Z,16.50
2022-08-14T22:12:47.218Z,16.50
2022-08-14T22:15:14.623Z,16.50
2022-08-14T22:17:44.336Z,16.50
2022-08-14T22:20:16.394Z,16.50
2022-08-14T22:22:44.900Z,16.40
2022-08-14T22:25:16.317Z,16.40
2022-08-14T22:27:55.757Z,16.40
2022-08-14T22:30:24.454Z,16.40
2022-08-14T22:32:57.069Z,16.40
2022-08-14T22:35:25.782Z,16.30
2022-08-14T22:38:34.579Z,16.30
2022-08-14T22:41:01.606Z,16.30
2022-08-14T22:43:31.158Z,16.20
2022-08-14T22:46:02.488Z,16.10
2022-08-14T22:48:29.795Z,16.10
2022-08-14T22:50:57.136Z,16.10
2022-08-14T22:53:29.419Z,16.10
2022-08-14T22:55:57.109Z,16.10
2022-08-14T22:58:31.446Z,16.10
2022-08-14T23:01:02.445Z,16.10
2022-08-14T23:03:34.269Z,16.20
2022-08-14T23:07:01.995Z,16.10
2022-08-14T23:09:01.915Z,16.10
2022-08-14T23:11:29.513Z,16.10
2022-08-14T23:13:56.508Z,16.00
2022-08-14T23:16:28.195Z,16.00
2022-08-14T23:18:55.304Z,16.00
2022-08-14T23:21:24.619Z,16.00
2022-08-14T23:23:55.050Z,15.90
2022-08-14T23:26:49.449Z,15.90
2022-08-14T23:29:15.638Z,15.90
2022-08-14T23:31:45.215Z,15.90
2022-08-14T23:34:20.442Z,15.90
2022-08-14T23:36:53.223Z,15.90
2022-08-14T23:39:33.136Z,15.90
2022-08-14T23:42:05.992Z,15.90
2022-08-14T23:44:37.803Z,15.80
2022-08-14T23:47:10.988Z,15.80
2022-08-14T23:50:01.297Z,15.70
2022-08-14T23:52:50.427Z,15.70
2022-08-14T23:55:33.504Z,15.70
2022-08-14T23:58:00.968Z,15.60
